createdAt,value
2023-03-14T00:01:27.345Z,14.48
2023-03-14T00:03:56.204Z,16.25
2023-03-14T00:06:24.986Z,15.35
2023-03-14T00:08:55.713Z,12.80
2023-03-14T00:11:24.392Z,11.85
2023-03-14T00:13:53.301Z,15.57
2023-03-14T00:16:21.841Z,15.00
2023-03-14T00:18:50.824Z,12.75
2023-03-14T00:21:20.943Z,14.35
2023-03-14T00:23:49.663Z,17.00
2023-03-14T00:26:20.095Z,17.48
2023-03-14T00:28:51.722Z,13.68
2023-03-14T00:31:20.309Z,13.88
2023-03-14T00:33:49.289Z,13.00
2023-03-14T00:36:18.945Z,17.30
2023-03-14T00:38:49.916Z,15.05
2023-03-14T00:41:26.403Z,14.23
2023-03-14T00:43:55.228Z,17.45
2023-03-14T00:46:23.799Z,17.25
2023-03-14T00:48:52.656Z,15.27
2023-03-14T00:51:21.094Z,12.40
2023-03-14T00:53:50.161Z,12.75
2023-03-14T00:56:18.736Z,15.15
2023-03-14T00:58:47.694Z,10.45
2023-03-14T01:01:19.343Z,10.43
2023-03-14T01:03:48.615Z,15.35
2023-03-14T01:06:20.734Z,14.45
2023-03-14T01:08:49.562Z,13.02
2023-03-14T01:11:37.519Z,14.98
2023-03-14T01:14:06.443Z,10.55
2023-03-14T01:16:36.320Z,11.70
2023-03-14T01:19:05.307Z,9.90
2023-03-14T01:21:35.040Z,15.30
2023-03-14T01:24:05.492Z,13.73
2023-03-14T01:26:35.288Z,13.82
2023-03-14T01:29:05.233Z,11.63
2023-03-14T01:31:36.559Z,10.57
2023-03-14T01:34:05.504Z,10.68
2023-03-14T01:36:34.339Z,11.77
2023-03-14T01:39:04.666Z,14.35
2023-03-14T01:41:33.209Z,10.90
2023-03-14T01:44:02.641Z,10.15
2023-03-14T01:46:40.516Z,8.70
2023-03-14T01:49:33.586Z,10.65
2023-03-14T01:52:17.792Z,12.23
2023-03-14T01:54:51.222Z,10.10
2023-03-14T01:57:30.461Z,9.80
2023-03-14T02:00:15.446Z,10.70
2023-03-14T02:02:51.855Z,11.10
2023-03-14T02:05:35.731Z,9.65
2023-03-14T02:08:13.015Z,7.93
2023-03-14T02:10:52.984Z,10.05
2023-03-14T02:13:28.038Z,10.35
2023-03-14T02:16:15.274Z,9.15
2023-03-14T02:19:04.177Z,9.25
2023-03-14T02:21:58.600Z,9.02
2023-03-14T02:25:09.886Z,9.40
2023-03-14T02:27:39.004Z,7.53
2023-03-14T02:30:19.407Z,9.00
2023-03-14T02:32:53.190Z,11.77
2023-03-14T02:35:25.493Z,8.45
2023-03-14T02:38:04.414Z,8.70
2023-03-14T02:40:38.907Z,7.75
2023-03-14T02:43:08.814Z,7.38
2023-03-14T02:45:51.117Z,7.78
2023-03-14T02:48:47.991Z,10.93
2023-03-14T02:51:17.740Z,6.75
2023-03-14T02:53:49.516Z,9.00
2023-03-14T02:56:18.503Z,9.25
2023-03-14T02:58:47.286Z,5.00
2023-03-14T03:01:36.114Z,9.82
2023-03-14T03:04:05.465Z,6.47
2023-03-14T03:06:33.997Z,10.00
2023-03-14T03:09:03.230Z,7.18
2023-03-14T03:11:32.891Z,7.50
2023-03-14T03:14:02.284Z,8.80
2023-03-14T03:16:32.169Z,8.70
2023-03-14T03:19:02.840Z,6.43
2023-03-14T03:21:31.234Z,7.32
2023-03-14T03:24:00.093Z,7.38
2023-03-14T03:26:28.636Z,6.63
2023-03-14T03:28:57.507Z,6.35
2023-03-14T03:31:25.996Z,9.30
2023-03-14T03:33:55.262Z,8.07
2023-03-14T03:36:25.219Z,5.38
2023-03-14T03:38:54.155Z,6.80
2023-03-14T03:41:22.834Z,7.00
2023-03-14T03:43:53.159Z,4.97
2023-03-14T03:46:22.258Z,5.80
2023-03-14T03:48:59.861Z,8.18
2023-03-14T03:51:29.820Z,6.47
2023-03-14T03:53:59.600Z,9.20
2023-03-14T03:56:32.821Z,5.85
2023-03-14T03:59:02.662Z,5.47
2023-03-14T04:01:31.099Z,8.25
2023-03-14T04:04:02.736Z,6.03
2023-03-14T04:06:31.566Z,5.22
2023-03-14T04:09:02.764Z,7.65
2023-03-14T04:11:49.223Z,5.65
2023-03-14T04:14:38.513Z,6.32
2023-03-14T04:17:13.747Z,6.78
2023-03-14T04:19:43.360Z,6.18
2023-03-14T04:22:12.922Z,5.65
2023-03-14T04:24:52.173Z,4.93
2023-03-14T04:27:22.708Z,7.55
2023-03-14T04:29:51.654Z,5.30
2023-03-14T04:32:27.703Z,4.75
2023-03-14T04:34:58.082Z,4.95
2023-03-14T04:37:26.754Z,5.88
2023-03-14T04:39:56.479Z,7.32
2023-03-14T04:42:30.168Z,5.43
2023-03-14T04:44:59.457Z,4.65
2023-03-14T04:47:30.740Z,6.38
2023-03-14T04:50:00.356Z,5.28
2023-03-14T04:52:29.387Z,5.85
2023-03-14T04:54:59.383Z,4.57
2023-03-14T04:57:28.725Z,6.65
2023-03-14T04:59:58.268Z,5.43
2023-03-14T05:03:05.142Z,6.47
2023-03-14T05:06:12.730Z,4.88
2023-03-14T05:08:47.273Z,6.00
2023-03-14T05:11:25.096Z,8.38
2023-03-14T05:14:02.800Z,4.55
2023-03-14T05:16:50.339Z,5.10
2023-03-14T05:19:37.277Z,5.22
2023-03-14T05:22:26.669Z,4.32
2023-03-14T05:25:18.309Z,4.28
2023-03-14T05:28:10.370Z,4.72
2023-03-14T05:30:56.253Z,5.07
2023-03-14T05:33:36.148Z,4.50
2023-03-14T05:36:24.913Z,4.07
2023-03-14T05:39:13.935Z,3.85
2023-03-14T05:42:11.486Z,4.75
2023-03-14T05:45:00.056Z,6.90
2023-03-14T05:47:47.084Z,6.55
2023-03-14T05:50:26.117Z,4.03
2023-03-14T05:53:32.887Z,6.50
2023-03-14T05:56:22.122Z,3.95
2023-03-14T05:59:04.539Z,5.97
2023-03-14T06:01:44.673Z,4.47
2023-03-14T06:04:18.594Z,8.38
2023-03-14T06:06:52.507Z,4.53
2023-03-14T06:09:23.693Z,6.00
2023-03-14T06:11:54.430Z,4.63
2023-03-14T06:14:23.700Z,9.68
2023-03-14T06:16:55.319Z,8.20
2023-03-14T06:19:27.264Z,5.10
2023-03-14T06:21:56.186Z,4.82
2023-03-14T06:24:27.515Z,6.65
2023-03-14T06:26:56.871Z,8.05
2023-03-14T06:29:25.465Z,4.18
2023-03-14T06:31:54.606Z,3.47
2023-03-14T06:34:23.365Z,4.90
2023-03-14T06:36:52.386Z,6.78
2023-03-14T06:39:21.040Z,5.65
2023-03-14T06:41:55.144Z,4.47
2023-03-14T06:44:24.411Z,5.03
2023-03-14T06:46:53.261Z,5.45
2023-03-14T06:49:22.141Z,5.68
2023-03-14T06:51:54.456Z,8.13
2023-03-14T06:54:23.002Z,4.43
2023-03-14T06:56:51.813Z,4.88
2023-03-14T06:59:20.243Z,5.38
2023-03-14T07:01:52.102Z,3.65
2023-03-14T07:04:20.808Z,6.82
2023-03-14T07:06:51.431Z,4.35
2023-03-14T07:09:20.022Z,5.03
2023-03-14T07:12:00.961Z,12.73
2023-03-14T07:14:29.778Z,5.70
2023-03-14T07:16:58.664Z,8.98
2023-03-14T07:19:27.310Z,5.63
2023-03-14T07:21:56.143Z,5.60
2023-03-14T07:24:27.377Z,6.32
2023-03-14T07:26:56.343Z,6.75
2023-03-14T07:29:25.075Z,5.13
2023-03-14T07:31:55.202Z,11.30
2023-03-14T07:34:24.885Z,7.15
2023-03-14T07:36:53.993Z,5.20
2023-03-14T07:39:22.904Z,8.25
2023-03-14T07:42:12.331Z,6.35
2023-03-14T07:45:01.045Z,3.90
2023-03-14T07:47:29.953Z,13.73
2023-03-14T07:49:58.517Z,7.93
2023-03-14T07:52:27.519Z,7.70
2023-03-14T07:54:56.213Z,7.03
2023-03-14T07:57:25.470Z,7.68
2023-03-14T07:59:54.127Z,7.63
2023-03-14T08:02:25.199Z,3.60
2023-03-14T08:04:53.767Z,5.00
2023-03-14T08:07:22.695Z,6.55
2023-03-14T08:09:51.255Z,5.93
2023-03-14T08:12:20.178Z,9.90
2023-03-14T08:14:48.641Z,10.52
2023-03-14T08:17:17.463Z,12.00
2023-03-14T08:19:46.016Z,13.45
2023-03-14T08:22:16.004Z,10.88
2023-03-14T08:24:45.486Z,10.73
2023-03-14T08:27:16.166Z,16.02
2023-03-14T08:29:45.028Z,7.72
2023-03-14T08:32:14.190Z,10.55
2023-03-14T08:34:42.778Z,8.98
2023-03-14T08:37:23.840Z,11.18
2023-03-14T08:39:54.999Z,8.82
2023-03-14T08:42:23.853Z,16.38
2023-03-14T08:44:53.239Z,10.40
2023-03-14T08:47:22.155Z,8.75
2023-03-14T08:49:50.605Z,15.43
2023-03-14T08:52:19.551Z,6.88
2023-03-14T08:54:48.267Z,7.78
2023-03-14T08:57:17.387Z,6.65
2023-03-14T08:59:45.912Z,8.98
2023-03-14T09:02:15.184Z,8.70
2023-03-14T09:04:43.867Z,8.75
2023-03-14T09:07:12.773Z,13.05
2023-03-14T09:09:41.467Z,11.68
2023-03-14T09:12:10.302Z,7.20
2023-03-14T09:14:39.116Z,7.20
2023-03-14T09:17:08.981Z,9.20
2023-03-14T09:19:37.654Z,7.20
2023-03-14T09:22:06.734Z,12.85
2023-03-14T09:24:35.304Z,10.55
2023-03-14T09:27:04.607Z,7.45
2023-03-14T09:29:33.284Z,11.68
2023-03-14T09:32:02.523Z,9.45
2023-03-14T09:34:31.241Z,7.65
2023-03-14T09:37:00.719Z,7.53
2023-03-14T09:39:29.283Z,9.15
2023-03-14T09:41:59.229Z,11.48
2023-03-14T09:44:31.026Z,7.60
2023-03-14T09:47:08.646Z,7.23
2023-03-14T09:49:40.855Z,7.38
2023-03-14T09:52:18.292Z,6.93
2023-03-14T09:54:55.473Z,11.15
2023-03-14T09:57:26.771Z,7.13
2023-03-14T09:59:58.896Z,6.75
2023-03-14T10:02:36.793Z,7.72
2023-03-14T10:05:19.545Z,7.10
2023-03-14T10:07:48.541Z,12.07
2023-03-14T10:10:22.685Z,8.73
2023-03-14T10:13:23.209Z,11.10
2023-03-14T10:15:57.358Z,6.65
2023-03-14T10:18:29.122Z,13.27
2023-03-14T10:21:09.146Z,12.48
2023-03-14T10:23:38.409Z,7.15
2023-03-14T10:26:08.486Z,8.90
2023-03-14T10:28:54.206Z,7.47
2023-03-14T10:31:28.914Z,7.53
2023-03-14T10:34:05.780Z,7.00
2023-03-14T10:36:36.246Z,6.38
2023-03-14T10:39:28.370Z,5.38
2023-03-14T10:42:22.185Z,8.65
2023-03-14T10:44:57.278Z,8.57
2023-03-14T10:47:27.712Z,8.45
2023-03-14T10:49:58.008Z,10.38
2023-03-14T10:52:35.858Z,7.50
2023-03-14T10:55:15.025Z,7.07
2023-03-14T10:57:44.160Z,7.20
2023-03-14T11:00:24.005Z,6.55
2023-03-14T11:03:14.043Z,7.07
2023-03-14T11:05:59.206Z,11.48
2023-03-14T11:08:41.851Z,12.27
2023-03-14T11:11:30.990Z,6.13
2023-03-14T11:14:18.141Z,9.35
2023-03-14T11:17:01.287Z,9.38
2023-03-14T11:20:10.851Z,6.13
2023-03-14T11:22:43.642Z,7.93
2023-03-14T11:25:28.800Z,8.05
2023-03-14T11:28:47.883Z,6.80
2023-03-14T11:31:25.254Z,5.57
2023-03-14T11:34:06.396Z,8.63
2023-03-14T11:36:45.665Z,9.43
2023-03-14T11:39:19.475Z,9.18
2023-03-14T11:41:52.217Z,8.50
2023-03-14T11:44:33.572Z,6.65
2023-03-14T11:47:17.304Z,10.85
2023-03-14T11:50:00.188Z,11.02
2023-03-14T11:52:44.376Z,18.55
2023-03-14T11:55:41.442Z,13.07
2023-03-14T11:58:32.226Z,8.05
2023-03-14T12:01:08.000Z,9.63
2023-03-14T12:03:57.179Z,8.65
2023-03-14T12:06:49.534Z,12.68
2023-03-14T12:09:21.992Z,14.98
2023-03-14T12:11:59.908Z,14.63
2023-03-14T12:14:33.439Z,9.70
2023-03-14T12:17:36.281Z,12.98
2023-03-14T12:20:23.834Z,4.68
2023-03-14T12:23:04.177Z,7.07
2023-03-14T12:25:34.507Z,6.75
2023-03-14T12:28:18.418Z,13.30
2023-03-14T12:30:46.894Z,7.20
2023-03-14T12:33:18.422Z,7.30
2023-03-14T12:36:04.021Z,4.80
2023-03-14T12:38:44.933Z,5.95
2023-03-14T12:41:38.846Z,6.78
2023-03-14T12:44:32.847Z,8.48
2023-03-14T12:47:02.167Z,11.25
2023-03-14T12:49:34.140Z,12.10
2023-03-14T12:52:03.430Z,7.28
2023-03-14T12:54:49.821Z,13.00
2023-03-14T12:57:41.597Z,6.35
2023-03-14T13:00:36.096Z,8.25
2023-03-14T13:03:23.566Z,9.45
2023-03-14T13:05:59.683Z,9.35
2023-03-14T13:08:43.316Z,13.93
2023-03-14T13:11:20.742Z,9.45
2023-03-14T13:13:57.293Z,9.95
2023-03-14T13:16:26.247Z,9.88
2023-03-14T13:19:28.176Z,8.70
2023-03-14T13:22:30.667Z,9.95
2023-03-14T13:25:05.143Z,10.57
2023-03-14T13:27:36.062Z,9.77
2023-03-14T13:30:27.764Z,8.68
2023-03-14T13:32:57.077Z,12.25
2023-03-14T13:35:30.854Z,9.65
2023-03-14T13:38:17.630Z,16.13
2023-03-14T13:40:46.787Z,12.27
2023-03-14T13:43:22.957Z,10.07
2023-03-14T13:46:15.913Z,10.05
2023-03-14T13:48:53.953Z,4.80
2023-03-14T13:51:22.802Z,5.75
2023-03-14T13:53:56.638Z,5.60
2023-03-14T13:56:28.270Z,4.50
2023-03-14T13:58:57.613Z,7.18
2023-03-14T14:01:33.790Z,7.18
2023-03-14T14:04:15.422Z,6.13
2023-03-14T14:06:52.418Z,5.00
2023-03-14T14:09:44.720Z,5.97
2023-03-14T14:12:22.813Z,4.53
2023-03-14T14:14:59.726Z,4.72
2023-03-14T14:17:34.699Z,6.20
2023-03-14T14:20:06.628Z,8.02
2023-03-14T14:22:35.240Z,2.83
2023-03-14T14:25:04.542Z,5.78
2023-03-14T14:27:40.536Z,7.43
2023-03-14T14:30:21.123Z,3.65
2023-03-14T14:32:51.331Z,6.47
2023-03-14T14:35:36.495Z,4.60
2023-03-14T14:38:14.204Z,5.57
2023-03-14T14:40:47.663Z,4.38
2023-03-14T14:45:53.131Z,3.55
2023-03-14T14:48:26.966Z,3.33
2023-03-14T14:51:05.122Z,3.65
2023-03-14T14:53:44.025Z,6.97
2023-03-14T14:56:28.843Z,3.03
2023-03-14T14:59:03.215Z,3.15
2023-03-14T15:01:40.603Z,8.55
2023-03-14T15:04:16.117Z,6.70
2023-03-14T15:06:48.151Z,3.28
2023-03-14T15:09:18.482Z,3.22
2023-03-14T15:11:49.172Z,2.72
2023-03-14T15:14:17.794Z,2.25
2023-03-14T15:16:47.085Z,3.58
2023-03-14T15:19:26.018Z,1.98
2023-03-14T15:21:55.251Z,3.42
2023-03-14T15:24:23.951Z,2.90
2023-03-14T15:26:53.172Z,3.30
2023-03-14T15:29:21.742Z,5.70
2023-03-14T15:31:50.778Z,2.22
2023-03-14T15:34:19.400Z,2.58
2023-03-14T15:36:48.354Z,4.93
2023-03-14T15:39:17.173Z,3.75
2023-03-14T15:41:46.209Z,3.30
2023-03-14T15:44:14.756Z,4.28
2023-03-14T15:46:43.585Z,4.72
2023-03-14T15:49:12.081Z,4.85
2023-03-14T15:51:40.912Z,2.83
2023-03-14T15:54:09.465Z,3.55
2023-03-14T15:56:40.430Z,3.83
2023-03-14T15:59:09.477Z,5.80
2023-03-14T16:01:38.784Z,3.17
2023-03-14T16:04:07.721Z,3.40
2023-03-14T16:06:38.171Z,3.40
2023-03-14T16:09:06.910Z,3.08
2023-03-14T16:11:36.238Z,2.38
2023-03-14T16:14:04.947Z,6.22
2023-03-14T16:16:34.117Z,3.78
2023-03-14T16:19:03.218Z,4.70
2023-03-14T16:21:33.889Z,2.38
2023-03-14T16:24:03.566Z,2.42
2023-03-14T16:26:35.360Z,3.95
2023-03-14T16:29:04.389Z,3.42
2023-03-14T16:31:33.592Z,4.45
2023-03-14T16:34:04.287Z,3.47
2023-03-14T16:36:33.639Z,7.47
2023-03-14T16:39:02.165Z,4.82
2023-03-14T16:41:31.876Z,5.05
2023-03-14T16:44:02.040Z,2.70
2023-03-14T16:46:31.450Z,3.10
2023-03-14T16:49:00.247Z,3.70
2023-03-14T16:51:29.354Z,2.80
2023-03-14T16:53:57.966Z,3.70
2023-03-14T16:56:26.967Z,2.90
2023-03-14T16:58:55.627Z,3.58
2023-03-14T17:01:24.500Z,2.58
2023-03-14T17:03:53.314Z,5.22
2023-03-14T17:06:28.181Z,3.45
2023-03-14T17:08:57.991Z,6.05
2023-03-14T17:11:27.165Z,3.25
2023-03-14T17:13:55.733Z,7.13
2023-03-14T17:16:25.013Z,3.70
2023-03-14T17:18:53.902Z,3.17
2023-03-14T17:21:23.651Z,1.58
2023-03-14T17:23:52.247Z,3.40
2023-03-14T17:26:21.254Z,2.53
2023-03-14T17:28:49.782Z,2.08
2023-03-14T17:31:19.625Z,2.53
2023-03-14T17:33:48.202Z,3.67
2023-03-14T17:36:18.265Z,5.38
2023-03-14T17:38:46.834Z,5.50
2023-03-14T17:41:16.401Z,7.85
2023-03-14T17:43:46.113Z,4.05
2023-03-14T17:46:15.961Z,5.30
2023-03-14T17:48:45.853Z,5.82
2023-03-14T17:51:15.256Z,6.13
2023-03-14T17:53:43.974Z,5.95
2023-03-14T17:56:12.917Z,2.78
2023-03-14T17:58:44.461Z,4.53
2023-03-14T18:01:21.403Z,4.60
2023-03-14T18:03:50.000Z,6.03
2023-03-14T18:06:19.067Z,8.63
2023-03-14T18:08:47.501Z,4.28
2023-03-14T18:11:17.161Z,5.05
2023-03-14T18:13:45.897Z,6.90
2023-03-14T18:16:14.847Z,3.90
2023-03-14T18:18:47.148Z,5.72
2023-03-14T18:21:18.082Z,7.63
2023-03-14T18:23:48.897Z,6.88
2023-03-14T18:26:18.210Z,4.90
2023-03-14T18:28:47.377Z,6.97
2023-03-14T18:31:19.061Z,7.30
2023-03-14T18:33:49.738Z,3.28
2023-03-14T18:36:18.744Z,3.15
2023-03-14T18:38:48.698Z,5.45
2023-03-14T18:41:20.212Z,3.30
2023-03-14T18:43:48.729Z,7.20
2023-03-14T18:46:17.866Z,4.80
2023-03-14T18:48:46.996Z,6.43
2023-03-14T18:51:16.369Z,5.90
2023-03-14T18:53:45.646Z,5.65
2023-03-14T18:56:14.820Z,8.13
2023-03-14T18:58:43.504Z,9.95
2023-03-14T19:01:12.882Z,8.45
2023-03-14T19:03:42.613Z,4.53
2023-03-14T19:06:12.931Z,7.45
2023-03-14T19:08:43.371Z,5.82
2023-03-14T19:11:13.513Z,5.43
2023-03-14T19:13:42.390Z,6.22
2023-03-14T19:16:15.009Z,6.65
2023-03-14T19:18:43.831Z,6.80
2023-03-14T19:21:13.662Z,3.92
2023-03-14T19:23:44.118Z,7.22
2023-03-14T19:26:16.442Z,6.28
2023-03-14T19:28:45.015Z,6.88
2023-03-14T19:31:14.321Z,6.72
2023-03-14T19:33:43.400Z,5.80
2023-03-14T19:36:33.775Z,4.63
2023-03-14T19:39:02.666Z,5.30
2023-03-14T19:41:31.964Z,6.50
2023-03-14T19:44:01.231Z,6.22
2023-03-14T19:46:33.332Z,7.68
2023-03-14T19:49:01.975Z,5.03
2023-03-14T19:51:31.675Z,5.50
2023-03-14T19:54:03.556Z,7.88
2023-03-14T19:56:33.641Z,4.90
2023-03-14T19:59:05.093Z,4.28
2023-03-14T20:01:35.551Z,6.43
2023-03-14T20:04:07.069Z,5.28
2023-03-14T20:06:36.247Z,5.63
2023-03-14T20:09:06.129Z,3.90
2023-03-14T20:11:40.409Z,3.45
2023-03-14T20:14:09.842Z,5.40
2023-03-14T20:16:39.242Z,4.72
2023-03-14T20:19:09.948Z,5.63
2023-03-14T20:21:39.063Z,3.97
2023-03-14T20:24:08.194Z,4.38
2023-03-14T20:26:38.355Z,7.35
2023-03-14T20:29:08.127Z,8.10
2023-03-14T20:31:39.224Z,4.75
2023-03-14T20:34:07.911Z,10.20
2023-03-14T20:36:38.340Z,4.43
2023-03-14T20:39:07.947Z,5.97
2023-03-14T20:41:43.093Z,12.23
2023-03-14T20:44:14.213Z,6.70
2023-03-14T20:46:46.648Z,4.35
2023-03-14T20:49:15.471Z,5.40
2023-03-14T20:51:45.827Z,4.63
2023-03-14T20:54:14.507Z,5.43
2023-03-14T20:56:46.836Z,7.15
2023-03-14T20:59:16.441Z,5.70
2023-03-14T21:04:54.128Z,5.22
2023-03-14T21:07:24.121Z,6.32
2023-03-14T21:09:52.876Z,6.47
2023-03-14T21:12:22.206Z,9.05
2023-03-14T21:14:51.788Z,5.43
2023-03-14T21:17:22.298Z,4.95
2023-03-14T21:19:58.695Z,5.18
2023-03-14T21:22:29.778Z,5.63
2023-03-14T21:24:58.277Z,7.43
2023-03-14T21:27:27.196Z,8.02
2023-03-14T21:29:55.690Z,4.70
2023-03-14T21:32:24.523Z,5.13
2023-03-14T21:34:53.496Z,5.22
2023-03-14T21:37:22.668Z,9.50
2023-03-14T21:39:51.332Z,5.07
2023-03-14T21:42:20.589Z,8.48
2023-03-14T21:44:49.110Z,8.65
2023-03-14T21:47:18.357Z,6.18
2023-03-14T21:49:47.328Z,4.07
2023-03-14T21:52:16.059Z,7.75
2023-03-14T21:54:44.498Z,5.68
2023-03-14T21:57:14.595Z,7.28
2023-03-14T21:59:44.901Z,8.90
2023-03-14T22:02:18.328Z,5.65
2023-03-14T22:04:46.903Z,5.45
2023-03-14T22:07:18.592Z,5.28
2023-03-14T22:09:47.787Z,7.55
2023-03-14T22:12:19.579Z,6.53
2023-03-14T22:14:48.801Z,6.68
2023-03-14T22:17:20.531Z,5.82
2023-03-14T22:19:49.022Z,7.38
2023-03-14T22:22:18.110Z,7.47
2023-03-14T22:24:46.702Z,4.88
2023-03-14T22:27:15.566Z,6.78
2023-03-14T22:29:44.080Z,6.13
2023-03-14T22:32:12.988Z,4.95
2023-03-14T22:34:41.476Z,5.45
2023-03-14T22:37:12.888Z,8.20
2023-03-14T22:39:41.547Z,7.88
2023-03-14T22:42:10.629Z,6.32
2023-03-14T22:44:39.160Z,5.90
2023-03-14T22:47:08.064Z,5.90
2023-03-14T22:49:36.518Z,8.15
2023-03-14T22:52:05.722Z,3.65
2023-03-14T22:54:34.165Z,8.18
2023-03-14T22:57:02.992Z,6.97
2023-03-14T22:59:31.455Z,8.05
2023-03-14T23:02:00.460Z,5.93
2023-03-14T23:04:29.021Z,6.18
2023-03-14T23:06:58.097Z,4.97
2023-03-14T23:09:26.715Z,6.43
2023-03-14T23:11:55.862Z,5.90
2023-03-14T23:14:24.348Z,6.90
2023-03-14T23:16:56.170Z,6.40
2023-03-14T23:19:26.235Z,7.20
2023-03-14T23:21:55.673Z,5.60
2023-03-14T23:24:24.209Z,7.20
2023-03-14T23:26:54.381Z,6.57
2023-03-14T23:29:22.825Z,8.98
2023-03-14T23:31:51.744Z,4.50
2023-03-14T23:34:20.757Z,4.80
2023-03-14T23:36:49.597Z,7.88
2023-03-14T23:39:18.069Z,7.05
2023-03-14T23:41:47.191Z,6.03
2023-03-14T23:44:15.698Z,6.38
2023-03-14T23:46:44.498Z,5.95
2023-03-14T23:49:13.410Z,6.30
2023-03-14T23:51:42.208Z,8.32
2023-03-14T23:54:10.697Z,7.47
2023-03-14T23:56:41.393Z,5.20
2023-03-14T23:59:09.936Z,8.07
